Flight Track Log - Related Links

Times and Time Zones

All times are in EDT time to prevent confusion due to time zone crossing. See the EJA229 flight status page for this flight to view local times or setup timezone preferences in your user account.


Time Position Orientation Groundspeed Altitude Reporting Facility
EDT Latitude Longitude Course Direction KTS MPH feet Rate Location/Type
Fri 01:48:36 PM 32.7406 -117.2194 285° West 166 191 1,000  Level Los Angeles Center
Fri 01:49:38 PM 32.7561 -117.2897 285° West 216 249 3,800 2,603 Climbing Los Angeles Center
Fri 01:50:52 PM 32.7033 -117.3339 215° Southwest 253 291 6,900 2,584 Climbing Los Angeles Center
Fri 01:51:55 PM 32.6575 -117.2694 130° Southeast 258 297 9,700 2,304 Climbing Los Angeles Center
Fri 01:52:57 PM 32.6436 -117.1844 101° East 263 303 11,700 1,984 Climbing Los Angeles Center
Fri 01:53:59 PM 32.6256 -117.0708 101° East 278 320 13,800 1,645 Climbing Los Angeles Center
Fri 01:55:01 PM 32.6128 -116.9653 98° East 306 352 15,100 1,161 Climbing Los Angeles Center
Fri 01:56:03 PM 32.6233 -116.8556 83° East 326 375 16,200 1,113 Climbing Los Angeles Center
Fri 01:57:05 PM 32.6344 -116.7383 84° East 343 395 17,400 1,161 Climbing Los Angeles Center
Fri 01:58:07 PM 32.6453 -116.6194 84° East 358 412 18,600 1,258 Climbing Los Angeles Center
Fri 01:59:09 PM 32.6592 -116.4694 84° East 385 443 20,000 1,238 Climbing Los Angeles Center
Fri 02:00:13 PM 32.6714 -116.3419 83° East 397 457 21,200 1,048 Climbing Los Angeles Center
Fri 02:01:15 PM 32.6836 -116.2114 84° East 404 465 22,200 1,016 Climbing Los Angeles Center
Fri 02:02:17 PM 32.6994 -116.0489 83° East 418 481 23,300 968 Climbing Los Angeles Center
Fri 02:03:19 PM 32.7125 -115.9075 84° East 432 497 24,200 968 Climbing Los Angeles Center
Fri 02:04:21 PM 32.7244 -115.7628 84° East 442 509 25,300 1,113 Climbing Los Angeles Center
Fri 02:05:23 PM 32.7383 -115.6183 83° East 444 511 26,500 1,210 Climbing Los Angeles Center
Fri 02:06:25 PM 32.7500 -115.4742 84° East 442 509 27,800 1,113 Climbing Los Angeles Center
Fri 02:07:27 PM 32.7519 -115.3294 89° East 441 507 28,800 912 Climbing Los Angeles Center
Fri 02:08:30 PM 32.7544 -115.1508 89° East 450 518 29,700 912 Climbing Los Angeles Center
Fri 02:09:32 PM 32.7575 -115.0003 89° East 455 524 30,700 919 Climbing Los Angeles Center
Fri 02:10:34 PM 32.7600 -114.8478 89° East 460 529 31,600 823 Climbing Los Angeles Center
Fri 02:11:36 PM 32.7631 -114.6931 89° East 467 537 32,400 823 Climbing Los Angeles Center
Fri 02:12:38 PM 32.7658 -114.5386 89° East 470 541 33,300 968 Climbing Los Angeles Center
Fri 02:13:40 PM 32.7678 -114.3511 89° East 472 543 34,400 919 Climbing Los Angeles Center
Fri 02:14:42 PM 32.7714 -114.1931 88° East 475 547 35,200 726 Climbing Los Angeles Center
Fri 02:15:44 PM 32.7731 -114.0317 89° East 482 555 35,900 816 Climbing Los Angeles Center
Fri 02:16:47 PM 32.7831 -113.8739 86° East 482 555 36,900 864 Climbing Los Angeles Center
Fri 02:17:49 PM 32.8067 -113.7178 80° East 479 551 37,700 726 Climbing Los Angeles Center
Fri 02:18:51 PM 32.8314 -113.5592 79° East 482 555 38,400 677 Climbing Los Angeles Center
Fri 02:19:53 PM 32.8569 -113.3989 79° East 483 556 39,100 919 Climbing Albuquerque Center
Fri 02:20:55 PM 32.8853 -113.2056 80° East 489 563 40,300 871 Climbing Albuquerque Center
Fri 02:21:57 PM 32.9064 -113.0481 81° East 483 556 40,900 339 Climbing Albuquerque Center
Fri 02:22:59 PM 32.9283 -112.8872 81° East 486 559 41,000 48 Climbing Albuquerque Center
Fri 02:24:01 PM 32.9506 -112.7194 81° East 502 578 41,000  Level Albuquerque Center
Fri 02:25:03 PM 32.9403 -112.5519 94° East 506 582 41,000  Level Albuquerque Center
Fri 02:26:05 PM 32.9178 -112.3853 99° East 507 583 41,000  Level Albuquerque Center
Fri 02:27:07 PM 32.8928 -112.1958 99° East 513 590 41,000  Level Albuquerque Center
Fri 02:28:09 PM 32.8714 -112.0292 99° East 515 593 41,000  Level Albuquerque Center
Fri 02:29:11 PM 32.8478 -111.8608 99° East 517 595 41,000  Level Albuquerque Center
Fri 02:30:12 PM 32.8256 -111.6936 99° East 516 594 41,000  Level Albuquerque Center
Fri 02:31:14 PM 32.8022 -111.5258 99° East 516 594 41,000  Level Albuquerque Center
Fri 02:32:16 PM 32.7742 -111.3261 99° East 515 593 41,000  Level Albuquerque Center
Fri 02:33:18 PM 32.7503 -111.1625 100° East 510 587 41,000  Level Albuquerque Center
Fri 02:34:20 PM 32.7261 -110.9964 100° East 511 588 41,000  Level Albuquerque Center
Fri 02:35:22 PM 32.7033 -110.8289 99° East 515 593 41,000  Level Albuquerque Center
Fri 02:36:24 PM 32.6786 -110.6636 100° East 513 590 41,000  Level Albuquerque Center
Fri 02:37:26 PM 32.6494 -110.4667 100° East 509 586 41,000  Level Albuquerque Center
Fri 02:38:28 PM 32.6256 -110.3039 100° East 509 586 41,000  Level Albuquerque Center
Fri 02:39:30 PM 32.6000 -110.1386 100° East 511 588 41,000  Level Albuquerque Center
Fri 02:40:32 PM 32.5753 -109.9756 100° East 509 586 41,000  Level Albuquerque Center
Fri 02:41:34 PM 32.5500 -109.8117 100° East 507 583 41,000  Level Albuquerque Center
Fri 02:42:36 PM 32.5228 -109.6475 101° East 511 588 41,000  Level Albuquerque Center
Fri 02:43:38 PM 32.4919 -109.4525 101° East 508 585 41,000  Level Albuquerque Center
Fri 02:44:39 PM 32.4681 -109.2906 100° East 505 581 41,000  Level Albuquerque Center
Fri 02:45:41 PM 32.4411 -109.1281 101° East 507 583 41,000  Level Albuquerque Center
Fri 02:46:43 PM 32.4153 -108.9667 101° East 506 582 41,000  Level Albuquerque Center
Fri 02:47:45 PM 32.3892 -108.8028 101° East 510 587 41,000  Level Albuquerque Center
Fri 02:48:47 PM 32.3569 -108.6081 101° East 508 585 41,000  Level Albuquerque Center
Fri 02:49:49 PM 32.3303 -108.4464 101° East 506 582 41,000  Level Albuquerque Center
Fri 02:50:51 PM 32.3047 -108.2875 101° East 507 583 41,000  Level Albuquerque Center
Fri 02:51:53 PM 32.2769 -108.1228 101° East 511 588 41,000  Level Albuquerque Center
Fri 02:52:55 PM 32.2436 -107.9275 101° East 510 587 41,000  Level Albuquerque Center
Fri 02:53:57 PM 32.2156 -107.7642 101° East 510 587 41,000  Level Albuquerque Center
Fri 02:54:59 PM 32.1889 -107.6025 101° East 508 585 41,000  Level Albuquerque Center
Fri 02:56:01 PM 32.1611 -107.4408 101° East 507 583 41,000  Level Albuquerque Center
Fri 02:57:03 PM 32.1331 -107.2806 102° East 507 583 41,000  Level Albuquerque Center
Fri 02:58:05 PM 32.1000 -107.0875 101° East 508 585 41,000  Level Albuquerque Center
Fri 02:59:07 PM 32.0711 -106.9261 102° East 508 585 41,000  Level Albuquerque Center
Fri 03:00:09 PM 32.0436 -106.7664 101° East 505 581 41,000  Level Albuquerque Center
Fri 03:01:11 PM 32.0139 -106.6050 102° East 506 582 41,000  Level Albuquerque Center
Fri 03:02:13 PM 31.9842 -106.4450 102° East 503 579 41,000  Level Albuquerque Center
Fri 03:03:15 PM 31.9506 -106.2497 101° East 509 586 41,000  Level Albuquerque Center
Fri 03:04:17 PM 31.9328 -106.0828 97° East 515 593 41,000  Level Albuquerque Center
Fri 03:05:19 PM 31.9158 -105.9367 98° East 511 588 41,000  Level Albuquerque Center
Fri 03:06:21 PM 31.8933 -105.7361 97° East 515 593 41,000  Level Albuquerque Center
Fri 03:07:23 PM 31.8747 -105.5700 97° East 512 589 41,000  Level Albuquerque Center
Fri 03:08:25 PM 31.8567 -105.4019 97° East 516 594 41,000  Level Albuquerque Center
Fri 03:09:27 PM 31.8383 -105.2369 97° East 509 586 41,000  Level Albuquerque Center
Fri 03:10:30 PM 31.8186 -105.0708 98° East 511 588 41,000  Level Albuquerque Center
Fri 03:11:32 PM 31.8011 -104.9039 97° East 512 589 41,000  Level Albuquerque Center
Fri 03:12:34 PM 31.7817 -104.7392 98° East 510 587 41,000  Level Albuquerque Center
Fri 03:13:36 PM 31.7578 -104.5419 98° East 508 585 41,000  Level Albuquerque Center
Fri 03:14:38 PM 31.7389 -104.3767 98° East 509 586 41,000  Level Albuquerque Center
Fri 03:15:40 PM 31.7186 -104.2094 98° East 509 586 41,000  Level Albuquerque Center
Fri 03:16:42 PM 31.6989 -104.0456 98° East 511 588 41,000  Level Albuquerque Center
Fri 03:17:44 PM 31.6767 -103.8803 99° East 512 589 41,000  Level Albuquerque Center
Fri 03:18:46 PM 31.6564 -103.7153 98° East 509 586 41,000  Level Albuquerque Center
Fri 03:19:48 PM 31.6286 -103.5169 99° East 512 589 41,000  Level Albuquerque Center
Fri 03:20:50 PM 31.6097 -103.3606 98° East 505 581 41,000  Level Albuquerque Center
Fri 03:21:52 PM 31.5864 -103.1983 100° East 503 579 41,000  Level Albuquerque Center
Fri 03:22:54 PM 31.5653 -103.0364 99° East 502 578 41,000  Level Albuquerque Center
Fri 03:23:56 PM 31.5450 -102.8753 98° East 501 577 41,000  Level Albuquerque Center
Fri 03:24:58 PM 31.5242 -102.7150 99° East 499 574 41,000  Level Albuquerque Center
Fri 03:25:59 PM 31.5028 -102.5572 99° East 493 567 41,000  Level Albuquerque Center
Fri 03:27:01 PM 31.4761 -102.3658 99° East 510 587 41,000  Level Albuquerque Center
Fri 03:28:03 PM 31.4544 -102.2100 99° East 497 572 41,000  Level Albuquerque Center
Fri 03:29:05 PM 31.4325 -102.0539 99° East 491 565 41,000  Level Albuquerque Center
Fri 03:30:07 PM 31.4097 -101.8764 99° East 494 568 41,000  Level Albuquerque Center
Fri 03:30:48 PM 31.3986 -101.7744 97° East 496 571 41,000  Level Fort Worth Center
Fri 03:31:37 PM 31.3786 -101.6572 101° East 490 564 41,000  Level Houston Center
Fri 03:32:39 PM 31.3558 -101.5000 100° East 489 563 41,000  Level Houston Center
Fri 03:33:41 PM 31.3283 -101.3125 100° East 489 563 41,000  Level Houston Center
Fri 03:34:43 PM 31.3053 -101.1556 100° East 489 563 41,000  Level Houston Center
Fri 03:35:45 PM 31.2825 -100.9969 99° East 490 564 41,000  Level Houston Center
Fri 03:36:35 PM 31.2636 -100.8717 100° East 489 563 41,000  Level Houston Center
Fri 03:37:37 PM 31.2411 -100.7139 99° East 491 565 41,000  Level Houston Center
Fri 03:38:39 PM 31.2164 -100.5589 101° East 487 560 41,000  Level Houston Center
Fri 03:39:41 PM 31.1931 -100.4019 100° East 488 562 41,000  Level Houston Center
Fri 03:40:43 PM 31.1653 -100.2147 100° East 486 559 41,000  Level Houston Center
Fri 03:41:46 PM 31.1403 -100.0586 101° East 487 560 41,000  Level Houston Center
Fri 03:42:48 PM 31.1164 -99.9025 100° East 488 562 41,000  Level Houston Center
Fri 03:43:50 PM 31.0922 -99.7483 100° East 485 558 41,000  Level Houston Center
Fri 03:44:52 PM 31.0672 -99.5928 101° East 487 560 41,000  Level Houston Center
Fri 03:45:54 PM 31.0422 -99.4378 101° East 485 558 41,000  Level Houston Center
Fri 03:46:56 PM 31.0167 -99.2828 101° East 487 560 41,000  Level Houston Center
Fri 03:47:58 PM 30.9867 -99.1047 101° East 483 556 41,000  Level Houston Center
Fri 03:49:01 PM 30.9617 -98.9497 101° East 483 556 41,000  Level Houston Center
Fri 03:50:03 PM 30.9378 -98.7947 100° East 482 555 41,000  Level Houston Center
Fri 03:51:05 PM 30.9111 -98.6403 101° East 483 556 41,000  Level Houston Center
Fri 03:52:07 PM 30.8797 -98.4600 101° East 483 556 41,000  Level Houston Center
Fri 03:53:09 PM 30.8539 -98.3058 101° East 483 556 41,000  Level Houston Center
Fri 03:54:11 PM 30.8272 -98.1517 101° East 482 555 41,000  Level Houston Center
Fri 03:55:14 PM 30.8006 -97.9983 101° East 481 554 41,000  Level Houston Center
Fri 03:56:15 PM 30.7736 -97.8444 101° East 481 554 41,000  Level Houston Center
Fri 03:57:17 PM 30.7464 -97.6914 102° East 481 554 41,000  Level Houston Center
Fri 03:58:19 PM 30.7194 -97.5383 102° East 483 556 41,000  Level Houston Center
Fri 03:59:22 PM 30.6864 -97.3606 102° East 484 557 41,000  Level Houston Center
Fri 04:00:24 PM 30.6600 -97.2069 101° East 488 562 41,000  Level Houston Center
Fri 04:01:26 PM 30.6333 -97.0533 101° East 491 565 41,000  Level Houston Center
Fri 04:02:28 PM 30.6069 -96.9014 101° East 482 555 41,000  Level Houston Center
Fri 04:03:30 PM 30.5803 -96.7483 101° East 482 555 41,000  Level Houston Center
Fri 04:04:32 PM 30.5469 -96.5717 102° East 481 554 41,000  Level Houston Center
Fri 04:05:34 PM 30.5189 -96.4194 102° East 479 551 41,000  Level Houston Center
Fri 04:06:36 PM 30.4911 -96.2661 102° East 482 555 41,000  Level Houston Center
Fri 04:07:39 PM 30.4625 -96.1142 102° East 480 552 41,000  Level Houston Center
Fri 04:08:41 PM 30.4297 -95.9525 103° East 472 543 41,000  Level Houston Center
Fri 04:09:43 PM 30.3981 -95.7886 103° East 474 545 41,000  Level Houston Center
Fri 04:10:45 PM 30.3731 -95.6544 102° East 471 542 41,000  Level Houston Center
Fri 04:11:47 PM 30.3439 -95.5028 103° East 476 548 41,000  Level Houston Center
Fri 04:12:49 PM 30.3150 -95.3517 102° East 480 552 41,000  Level Houston Center
Fri 04:13:51 PM 30.2858 -95.2011 103° East 478 550 41,000  Level Houston Center
Fri 04:14:54 PM 30.2508 -95.0211 103° East 476 548 41,000  Level Houston Center
Fri 04:15:56 PM 30.2217 -94.8703 103° East 479 551 41,000  Level Houston Center
Fri 04:16:58 PM 30.1917 -94.7211 103° East 476 548 41,000  Level Houston Center
Fri 04:18:00 PM 30.1622 -94.5728 103° East 475 547 41,000  Level Houston Center
Fri 04:19:02 PM 30.1286 -94.4144 104° East 472 543 41,000  Level Houston Center
Fri 04:20:04 PM 30.0994 -94.2667 103° East 474 545 41,000  Level Houston Center
Fri 04:21:06 PM 30.0694 -94.1206 103° East 472 543 41,000  Level Houston Center
Fri 04:22:09 PM 30.0389 -93.9742 104° East 474 545 41,000  Level Houston Center
Fri 04:23:10 PM 30.0017 -93.7992 104° East 475 547 41,000  Level Houston Center
Fri 04:24:13 PM 29.9700 -93.6522 104° East 477 549 41,000  Level Houston Center
Fri 04:25:15 PM 29.9394 -93.5061 104° East 476 548 41,000  Level Houston Center
Fri 04:26:17 PM 29.9089 -93.3589 103° East 477 549 41,000  Level Houston Center
Fri 04:27:19 PM 29.8775 -93.2136 104° East 474 545 41,000  Level Houston Center
Fri 04:28:21 PM 29.8397 -93.0372 104° East 474 545 41,000  Level Houston Center
Fri 04:29:23 PM 29.8086 -92.8900 104° East 476 548 41,000  Level Houston Center
Fri 04:30:25 PM 29.7764 -92.7428 104° East 476 548 41,000  Level Houston Center
Fri 04:31:27 PM 29.7447 -92.5978 104° East 473 544 41,000  Level Houston Center
Fri 04:32:30 PM 29.7128 -92.4514 104° East 472 543 41,000  Level Houston Center
Fri 04:33:32 PM 29.6744 -92.2758 104° East 472 543 41,000  Level Houston Center
Fri 04:34:34 PM 29.6428 -92.1308 104° East 471 542 41,000  Level Houston Center
Fri 04:35:36 PM 29.6108 -91.9858 104° East 470 541 41,000  Level Houston Center
Fri 04:36:38 PM 29.5769 -91.8400 105° East 473 544 41,000  Level Houston Center
Fri 04:37:40 PM 29.5414 -91.6772 104° East 473 544 41,000  Level Houston Center
Fri 04:38:42 PM 29.5075 -91.5317 105° East 473 544 41,000  Level Houston Center
Fri 04:39:45 PM 29.4747 -91.3875 105° East 471 542 41,000  Level Houston Center
Fri 04:40:47 PM 29.4417 -91.2408 104° East 474 545 41,000  Level Houston Center
Fri 04:41:49 PM 29.4008 -91.0667 105° East 473 544 41,000  Level Houston Center
Fri 04:42:51 PM 29.3678 -90.9214 105° East 474 545 41,000  Level Houston Center
Fri 04:43:53 PM 29.3561 -90.7750 95° East 472 543 41,000  Level Houston Center
Fri 04:44:55 PM 29.3644 -90.6281 86° East 465 535 41,000  Level Houston Center
Fri 04:45:57 PM 29.3733 -90.4814 86° East 464 534 41,000  Level Houston Center
Fri 04:46:59 PM 29.3822 -90.3350 86° East 464 534 41,000  Level Houston Center
Fri 04:48:01 PM 29.3939 -90.1600 86° East 462 532 41,000  Level Houston Center
Fri 04:49:04 PM 29.4028 -90.0142 86° East 462 532 41,000  Level Houston Center
Fri 04:50:06 PM 29.4131 -89.8683 85° East 461 531 41,000  Level Houston Center
Fri 04:51:08 PM 29.3839 -89.7231 103° East 476 548 41,000  Level Houston Center
Fri 04:52:10 PM 29.3411 -89.5806 109° East 475 547 41,000  Level Houston Center
Fri 04:53:12 PM 29.2903 -89.4056 108° East 481 554 41,000  Level Houston Center
Fri 04:54:14 PM 29.2483 -89.2636 109° East 475 547 41,000  Level Houston Center
Fri 04:55:16 PM 29.2056 -89.1214 109° East 474 545 41,000  Level Houston Center
Fri 04:56:19 PM 29.1619 -88.9794 109° East 474 545 41,000  Level Houston Center
Fri 04:57:20 PM 29.1178 -88.8383 110° East 474 545 41,000  Level Houston Center
Fri 04:58:23 PM 29.0661 -88.6661 109° East 477 549 41,000  Level Houston Center
Fri 04:59:25 PM 29.0217 -88.5253 110° East 474 545 41,000  Level Houston Center
Fri 05:00:27 PM 28.9783 -88.3814 109° East 477 549 41,000  Level Houston Center
Fri 05:01:29 PM 28.9344 -88.2414 110° East 475 547 41,000  Level Houston Center
Fri 05:02:31 PM 28.8906 -88.0986 109° East 476 548 41,000  Level Houston Center
Fri 05:03:33 PM 28.8478 -87.9503 108° East 479 551 41,000  Level Houston Center
Fri 05:04:35 PM 28.7925 -87.7781 110° East 482 555 41,000  Level Houston Center
Fri 05:05:37 PM 28.7494 -87.6344 109° East 481 554 41,000  Level Houston Center
Fri 05:06:40 PM 28.7039 -87.4919 110° East 481 554 41,000  Level Houston Center
Fri 05:07:42 PM 28.6578 -87.3472 110° East 485 558 41,000  Level Houston Center
Fri 05:08:44 PM 28.6128 -87.2047 110° East 482 555 41,000  Level Houston Center
Fri 05:09:46 PM 28.5583 -87.0342 110° East 481 554 41,000  Level Houston Center
Fri 05:10:53 PM 28.5114 -86.8919 111° Southeast 476 548 41,000  Level Jacksonville Center
Fri 05:11:53 PM 28.4694 -86.7556 109° East 474 545 41,000  Level Jacksonville Center
Fri 05:12:53 PM 28.4197 -86.6072 111° Southeast 474 545 41,000  Level Jacksonville Center
Fri 05:13:53 PM 28.3758 -86.4667 110° East 474 545 41,000  Level Jacksonville Center
Fri 05:14:53 PM 28.3275 -86.3258 111° Southeast 474 545 41,000  Level Jacksonville Center
Fri 05:15:53 PM 28.2811 -86.1828 110° East 474 545 41,000  Level Jacksonville Center
Fri 05:16:53 PM 28.2344 -86.0422 111° Southeast 474 545 41,000  Level Jacksonville Center
Fri 05:17:53 PM 28.1878 -85.8994 110° East 474 545 41,000  Level Jacksonville Center
Fri 05:18:53 PM 28.1389 -85.7569 111° Southeast 480 552 41,000  Level Jacksonville Center
Fri 05:20:28 PM 28.0625 -85.5133 110° East 473 544 41,000  Level Miami Center
Fri 05:21:28 PM 28.0108 -85.3683 112° Southeast 481 554 41,000  Level Miami Center
Fri 05:22:28 PM 27.9650 -85.2242 110° East 488 562 41,000  Level Miami Center
Fri 05:23:28 PM 27.9150 -85.0822 112° Southeast 488 562 41,000  Level Miami Center
Fri 05:24:28 PM 27.8661 -84.9494 113° Southeast 488 562 41,000  Level Miami Center
Fri 05:25:28 PM 27.8181 -84.8031 110° East 488 562 41,000  Level Miami Center
Fri 05:26:28 PM 27.7697 -84.6569 110° East 488 562 41,000  Level Miami Center
Fri 05:27:28 PM 27.7150 -84.5125 113° Southeast 488 562 41,000 -250 Level Miami Center
Fri 05:28:28 PM 27.6622 -84.3686 112° Southeast 488 562 40,500 -850 Descending Miami Center
Fri 05:29:28 PM 27.6111 -84.2247 112° Southeast 488 562 39,300 -800 Descending Miami Center
Fri 05:30:28 PM 27.5600 -84.0811 112° Southeast 488 562 38,900 -250 Descending Miami Center
Fri 05:31:28 PM 27.5111 -83.9353 111° Southeast 488 562 38,800 -150 Descending Miami Center
Fri 05:32:28 PM 27.4558 -83.7869 113° Southeast 493 567 38,600 -150 Descending Miami Center
Fri 05:33:28 PM 27.4064 -83.6392 111° Southeast 498 573 38,500 -1,250 Descending Miami Center
Fri 05:34:28 PM 27.3525 -83.4983 113° Southeast 498 573 36,100 -2,550 Descending Miami Center
Fri 05:35:28 PM 27.3025 -83.3600 112° Southeast 486 559 33,400 -2,550 Descending Miami Center
Fri 05:36:28 PM 27.2522 -83.2217 112° Southeast 486 559 31,000 -1,200 Descending Miami Center
Fri 05:37:28 PM 27.2039 -83.0908 113° Southeast 472 543 31,000  Level Miami Center
Fri 05:38:28 PM 27.1553 -82.9553 112° Southeast 462 532 31,000  Level Miami Center
Fri 05:39:28 PM 27.1047 -82.8172 112° Southeast 462 532 31,000 -400 Level Miami Center
Fri 05:40:28 PM 27.0542 -82.6772 112° Southeast 473 544 30,200 -1,300 Descending Miami Center
Fri 05:41:28 PM 26.9956 -82.5228 113° Southeast 486 559 28,400 -1,600 Descending Miami Center
Fri 05:42:28 PM 26.9481 -82.3972 113° Southeast 486 559 27,000 -1,500 Descending Miami Center
Fri 05:43:28 PM 26.8950 -82.2550 113° Southeast 486 559 25,400 -1,500 Descending Miami Center
Fri 05:44:28 PM 26.8436 -82.1200 113° Southeast 486 559 24,000 -1,300 Descending Miami Center
Fri 05:45:28 PM 26.7942 -81.9875 113° Southeast 476 548 22,800 -1,450 Descending Miami Center
Fri 05:46:28 PM 26.7447 -81.8528 112° Southeast 471 542 21,100 -1,750 Descending Miami Center
Fri 05:47:28 PM 26.6911 -81.7089 113° Southeast 477 549 19,300 -1,050 Descending Miami Center
Fri 05:48:28 PM 26.7086 -81.5514 83° East 455 524 19,000 -150 Descending Miami Center
Fri 05:49:28 PM 26.7381 -81.4131 77° East 455 524 19,000 -1,350 Level Miami Center
Fri 05:50:28 PM 26.7736 -81.2750 74° East 461 531 16,300 -2,750 Descending Miami Center
Fri 05:51:28 PM 26.7989 -81.1364 78° East 461 531 13,500 -2,850 Descending Miami Center
Fri 05:52:28 PM 26.8111 -80.9994 84° East 461 531 10,600 -1,750 Descending Miami Center
Fri 05:53:28 PM 26.8289 -80.8908 80° East 412 474 10,000 -300 Descending Miami Center
Fri 05:54:28 PM 26.8164 -80.8089 100° East 285 328 10,000  Level Miami Center
Fri 05:55:28 PM 26.7875 -80.7194 110° East 299 344 10,000 -850 Level Miami Center
Fri 05:56:28 PM 26.7525 -80.6206 112° Southeast 309 356 8,300 -1,800 Descending Miami Center
Fri 05:57:28 PM 26.7189 -80.5406 115° Southeast 291 335 6,400 -1,700 Descending Miami Center
Fri 05:58:28 PM 26.7003 -80.4561 104° East 286 329 4,900 -1,650 Descending Miami Center
Fri 05:59:28 PM 26.6939 -80.3725 95° East 274 315 3,100 -1,000 Descending Miami Center
Fri 06:00:28 PM 26.6894 -80.3025 94° East 246 283 2,900 -400 Descending Miami Center
Fri 06:01:28 PM 26.6883 -80.2514 91° East 201 231 2,300 -700 Descending Miami Center
Fri 06:02:28 PM 26.6856 -80.1908 93° East 176 203 1,500 -800 Descending Miami Center
Fri 06:04:00 PM 26.6832 -80.0956 50° Northeast  Level Estimated
Fri 06:11:00 PM 26.6832 -80.0956 50° Northeast  Level Estimated
Fri 06:12:00 PM 26.6832 -80.0956 50° Northeast  Level Estimated
Fri 06:13:00 PM 26.6832 -80.0956 50° Northeast  Level Estimated

Login

Don't have an account? Register now (free) for customized features, flight alerts, and more!